Terminal Aerodrome Forecast
Issued by NWS Quad Cities IA IL

Home | Current Version | Previous Version | Text Only | Print | Product List | Glossary On
Versions: 1 2 3 4 5 6 7 8 9 10 11 12 13 14 15 16 17 18 19 20 21 22 23 24
361
FTUS43 KDVN 292338
TAFMLI
TAF
KMLI 292338Z 3000/3024 24005KT P6SM SCT250
     FM300900 23005KT P6SM BKN040
     FM301200 24007KT P6SM BKN030
     FM301600 25011KT 6SM BR OVC025=

USA.gov is the U.S. government's official web portal to all federal, state and local government web resources and services.